createdAt,value
2019-03-19T00:03:05.233Z,77.96
2019-03-19T00:08:10.728Z,78.89
2019-03-19T00:13:16.182Z,78.95
2019-03-19T00:18:21.335Z,80.03
2019-03-19T00:23:26.911Z,79.78
2019-03-19T00:28:32.008Z,79.93
2019-03-19T00:33:37.896Z,79.42
2019-03-19T00:38:43.055Z,79.49
2019-03-19T00:43:48.535Z,79.01
2019-03-19T00:48:53.756Z,78.33
2019-03-19T00:53:58.915Z,78.29
2019-03-19T00:59:04.001Z,78.34
2019-03-19T01:04:09.307Z,78.51
2019-03-19T01:09:14.460Z,78.97
2019-03-19T01:14:19.806Z,78.86
2019-03-19T01:19:24.961Z,79.33
2019-03-19T01:24:30.235Z,79.31
2019-03-19T01:29:35.516Z,78.23
2019-03-19T01:34:40.663Z,78.38
2019-03-19T01:39:45.821Z,78.31
2019-03-19T01:44:51.364Z,78.16
2019-03-19T01:49:56.593Z,78.16
2019-03-19T01:55:01.747Z,78.24
2019-03-19T02:00:09.306Z,78.23
2019-03-19T02:05:16.234Z,77.78
2019-03-19T02:10:21.314Z,77.95
2019-03-19T02:15:26.433Z,78.97
2019-03-19T02:20:31.669Z,78.75
2019-03-19T02:25:37.102Z,79.14
2019-03-19T02:30:42.271Z,79.36
2019-03-19T02:35:47.345Z,80.18
2019-03-19T02:40:52.370Z,79.95
2019-03-19T02:45:57.600Z,80.10
2019-03-19T02:51:03.915Z,79.94
2019-03-19T02:56:09.053Z,80.38
2019-03-19T03:01:14.564Z,80.46
2019-03-19T03:06:19.998Z,80.69
2019-03-19T03:11:25.489Z,80.66
2019-03-19T03:16:30.631Z,80.44
2019-03-19T03:21:35.804Z,80.77
2019-03-19T03:26:47.345Z,81.05
2019-03-19T03:31:48.166Z,81.13
2019-03-19T03:36:53.340Z,81.54
2019-03-19T03:41:58.580Z,81.64
2019-03-19T03:47:04.013Z,82.16
2019-03-19T03:52:09.528Z,82.28
2019-03-19T03:57:14.687Z,82.48
2019-03-19T04:02:20.188Z,82.26
2019-03-19T04:07:25.333Z,82.50
2019-03-19T04:12:31.950Z,82.39
2019-03-19T04:17:37.360Z,82.95
2019-03-19T04:22:44.060Z,82.55
2019-03-19T04:27:49.228Z,82.36
2019-03-19T04:32:54.687Z,82.72
2019-03-19T04:37:59.894Z,82.81
2019-03-19T04:43:05.126Z,82.79
2019-03-19T04:48:10.217Z,82.47
2019-03-19T04:53:16.466Z,82.97
2019-03-19T04:58:21.760Z,83.16
2019-03-19T05:03:26.993Z,83.30
2019-03-19T05:08:32.142Z,83.75
2019-03-19T05:13:37.236Z,84.27
2019-03-19T05:18:42.309Z,84.21
2019-03-19T05:23:47.802Z,83.99
2019-03-19T05:28:53.239Z,84.03
2019-03-19T05:33:58.768Z,84.01
2019-03-19T05:39:05.536Z,84.13
2019-03-19T05:44:10.985Z,84.55
2019-03-19T05:49:16.137Z,84.57
2019-03-19T05:54:21.222Z,84.30
2019-03-19T05:59:26.368Z,84.80
2019-03-19T06:04:32.641Z,84.37
2019-03-19T06:09:37.861Z,84.15
2019-03-19T06:14:43.768Z,83.60
2019-03-19T06:19:48.919Z,83.92
2019-03-19T06:24:54.023Z,84.15
2019-03-19T06:29:59.115Z,83.51
2019-03-19T06:35:04.887Z,83.26
2019-03-19T06:40:11.777Z,83.15
2019-03-19T06:45:16.943Z,83.04
2019-03-19T06:50:22.281Z,82.89
2019-03-19T06:55:28.253Z,81.79
2019-03-19T07:00:33.744Z,81.93
2019-03-19T07:05:39.208Z,82.11
2019-03-19T07:10:44.409Z,81.25
2019-03-19T07:15:49.887Z,81.79
2019-03-19T07:20:55.125Z,81.60
2019-03-19T07:26:00.300Z,82.26
2019-03-19T07:31:05.460Z,82.28
2019-03-19T07:36:10.612Z,82.06
2019-03-19T07:41:17.518Z,80.52
2019-03-19T07:46:22.477Z,80.31
2019-03-19T07:51:27.613Z,78.97
2019-03-19T07:56:33.054Z,78.65
2019-03-19T08:01:40.126Z,79.20
2019-03-19T08:06:45.661Z,79.63
2019-03-19T08:11:51.904Z,79.36
2019-03-19T08:16:59.054Z,78.54
2019-03-19T08:22:04.210Z,77.49
2019-03-19T08:27:09.414Z,78.93
2019-03-19T08:32:14.699Z,77.89
2019-03-19T08:37:19.845Z,78.54
2019-03-19T08:42:25.855Z,77.67
2019-03-19T08:47:31.001Z,78.05
2019-03-19T08:52:36.146Z,77.71
2019-03-19T08:57:41.295Z,75.98
2019-03-19T09:02:46.454Z,75.45
2019-03-19T09:07:53.220Z,73.26
2019-03-19T09:12:58.369Z,69.66
2019-03-19T09:18:03.521Z,71.21
2019-03-19T09:23:08.854Z,71.67
2019-03-19T09:28:14.928Z,71.76
2019-03-19T09:33:21.124Z,70.24
2019-03-19T09:38:26.275Z,69.60
2019-03-19T09:43:31.420Z,69.02
2019-03-19T09:48:36.499Z,71.32
2019-03-19T09:53:41.908Z,68.07
2019-03-19T09:58:47.912Z,66.81
2019-03-19T10:03:53.071Z,65.72
2019-03-19T10:08:58.230Z,66.37
2019-03-19T10:14:03.714Z,64.76
2019-03-19T10:19:09.873Z,65.26
2019-03-19T10:24:15.049Z,65.25
2019-03-19T10:29:21.642Z,67.77
2019-03-19T10:34:27.403Z,67.80
2019-03-19T10:39:33.169Z,66.83
2019-03-19T10:44:38.590Z,64.56
2019-03-19T10:49:43.676Z,66.27
2019-03-19T10:54:48.837Z,65.28
2019-03-19T10:59:57.856Z,65.21
2019-03-19T11:05:03.013Z,61.10
2019-03-19T11:10:08.480Z,62.61
2019-03-19T11:15:15.570Z,62.95
2019-03-19T11:20:20.817Z,62.90
2019-03-19T11:25:26.718Z,60.70
2019-03-19T11:30:31.882Z,61.58
2019-03-19T11:35:37.032Z,58.56
2019-03-19T11:40:42.185Z,57.35
2019-03-19T11:45:47.648Z,59.32
2019-03-19T11:50:52.803Z,59.10
2019-03-19T11:55:57.956Z,57.37
2019-03-19T12:01:03.383Z,58.67
2019-03-19T12:06:08.538Z,59.41
2019-03-19T12:11:13.696Z,55.75
2019-03-19T12:16:19.859Z,55.43
2019-03-19T12:21:25.004Z,52.94
2019-03-19T12:26:30.476Z,52.84
2019-03-19T12:31:35.628Z,56.02
2019-03-19T12:36:41.570Z,56.83
2019-03-19T12:41:48.550Z,56.72
2019-03-19T12:46:53.756Z,57.28
2019-03-19T12:51:59.246Z,55.74
2019-03-19T12:57:04.477Z,53.03
2019-03-19T13:02:09.960Z,57.10
2019-03-19T13:07:15.490Z,53.33
2019-03-19T13:12:20.579Z,52.51
2019-03-19T13:17:26.040Z,52.60
2019-03-19T13:22:31.573Z,52.64
2019-03-19T13:27:36.879Z,50.76
2019-03-19T13:32:42.029Z,51.61
2019-03-19T13:37:47.272Z,53.06
2019-03-19T13:42:52.463Z,53.18
2019-03-19T13:47:58.007Z,52.20
2019-03-19T13:53:03.912Z,52.45
2019-03-19T13:58:09.163Z,52.47
2019-03-19T14:03:14.573Z,51.27
2019-03-19T14:08:19.733Z,53.63
2019-03-19T14:13:24.881Z,53.13
2019-03-19T14:18:30.019Z,50.41
2019-03-19T14:23:35.453Z,50.09
2019-03-19T14:28:41.046Z,49.85
2019-03-19T14:33:46.194Z,52.97
2019-03-19T14:38:51.205Z,51.17
2019-03-19T14:43:57.230Z,51.56
2019-03-19T14:49:02.387Z,52.18
2019-03-19T14:54:07.618Z,49.82
2019-03-19T14:59:12.783Z,51.64
2019-03-19T15:04:17.934Z,49.96
2019-03-19T15:09:23.265Z,51.36
2019-03-19T15:14:28.716Z,50.68
2019-03-19T15:19:34.675Z,53.30
2019-03-19T15:24:39.840Z,52.58
2019-03-19T15:29:44.976Z,52.63
2019-03-19T15:34:50.124Z,54.55
2019-03-19T15:39:55.284Z,56.44
2019-03-19T15:45:00.445Z,56.02
2019-03-19T15:50:07.821Z,56.88
2019-03-19T15:55:13.796Z,57.31
2019-03-19T16:00:18.954Z,57.63
2019-03-19T16:05:24.088Z,56.55
2019-03-19T16:10:29.561Z,57.56
2019-03-19T16:15:34.713Z,57.98
2019-03-19T16:20:39.869Z,58.14
2019-03-19T16:25:45.052Z,56.78
2019-03-19T16:30:50.198Z,55.94
2019-03-19T16:35:55.406Z,55.85
2019-03-19T16:41:01.675Z,54.55
2019-03-19T16:46:06.940Z,55.43
2019-03-19T16:51:14.132Z,55.06
2019-03-19T16:56:19.629Z,57.47
2019-03-19T17:01:25.365Z,59.29
2019-03-19T17:06:30.523Z,59.71
2019-03-19T17:11:35.774Z,60.29
2019-03-19T17:16:41.228Z,60.86
2019-03-19T17:21:47.255Z,63.29
2019-03-19T17:26:52.442Z,63.16
2019-03-19T17:31:58.012Z,62.21
2019-03-19T17:37:03.560Z,61.36
2019-03-19T17:42:08.821Z,57.35
2019-03-19T17:47:13.967Z,59.36
2019-03-19T17:52:20.276Z,59.80
2019-03-19T17:57:25.769Z,59.68
2019-03-19T18:02:31.916Z,59.76
2019-03-19T18:07:38.404Z,60.26
2019-03-19T18:12:43.556Z,60.09
2019-03-19T18:17:48.708Z,62.28
2019-03-19T18:22:53.943Z,62.05
2019-03-19T18:28:00.990Z,63.00
2019-03-19T18:33:06.169Z,63.28
2019-03-19T18:38:11.931Z,62.96
2019-03-19T18:43:17.105Z,63.03
2019-03-19T18:48:22.538Z,63.15
2019-03-19T18:53:27.756Z,62.75
2019-03-19T18:58:32.901Z,62.68
2019-03-19T19:03:40.298Z,62.16
2019-03-19T19:08:45.706Z,62.88
2019-03-19T19:13:52.260Z,62.83
2019-03-19T19:18:57.959Z,62.99
2019-03-19T19:24:03.106Z,63.68
2019-03-19T19:29:08.697Z,64.65
2019-03-19T19:34:13.820Z,64.72
2019-03-19T19:39:18.978Z,64.70
2019-03-19T19:44:24.716Z,64.58
2019-03-19T19:49:31.011Z,64.95
2019-03-19T19:54:36.860Z,65.02
2019-03-19T19:59:41.934Z,66.45
2019-03-19T20:04:47.068Z,65.37
2019-03-19T20:09:52.223Z,65.19
2019-03-19T20:14:57.466Z,65.62
2019-03-19T20:20:02.549Z,66.16
2019-03-19T20:25:07.933Z,67.19
2019-03-19T20:30:15.519Z,68.42
2019-03-19T20:35:20.691Z,68.14
2019-03-19T20:40:25.834Z,68.26
2019-03-19T20:45:30.976Z,68.96
2019-03-19T20:50:36.178Z,68.37
2019-03-19T20:55:42.500Z,67.67
2019-03-19T21:00:47.661Z,66.81
2019-03-19T21:05:53.453Z,66.93
2019-03-19T21:10:58.982Z,67.71
2019-03-19T21:16:04.061Z,68.76
2019-03-19T21:21:09.518Z,69.29
2019-03-19T21:26:15.095Z,69.69
2019-03-19T21:31:20.248Z,69.57
2019-03-19T21:36:25.662Z,69.58
2019-03-19T21:41:30.808Z,69.15
2019-03-19T21:46:36.933Z,69.35
2019-03-19T21:51:43.154Z,68.98
2019-03-19T21:56:49.499Z,69.14
2019-03-19T22:01:55.765Z,69.57
2019-03-19T22:07:00.922Z,69.78
2019-03-19T22:12:06.800Z,70.38
2019-03-19T22:17:12.024Z,69.94
2019-03-19T22:22:17.201Z,70.29
2019-03-19T22:27:22.377Z,70.31
2019-03-19T22:32:27.889Z,70.36
2019-03-19T22:37:33.391Z,70.72
2019-03-19T22:42:38.571Z,70.64
2019-03-19T22:47:43.724Z,70.90
2019-03-19T22:52:48.871Z,71.55
2019-03-19T22:57:54.030Z,71.49
2019-03-19T23:02:59.711Z,71.29
2019-03-19T23:08:04.971Z,71.71
2019-03-19T23:13:11.902Z,72.00
2019-03-19T23:18:18.479Z,72.35
2019-03-19T23:23:24.680Z,72.34
2019-03-19T23:28:30.135Z,72.49
2019-03-19T23:33:35.279Z,72.80
2019-03-19T23:38:40.424Z,72.52
2019-03-19T23:43:45.572Z,72.75
2019-03-19T23:48:51.891Z,72.92
2019-03-19T23:53:57.687Z,73.25
2019-03-19T23:59:03.437Z,73.74
